Terminal Aerodrome Forecast
Issued by NWS

Home | Current Version | Previous Version | Graphics & Text | Print | Product List | Glossary On
Versions: 1 2 3 4 5 6 7 8 9 10 11 12 13 14
000
FTUS43 KICT 241700
TAFSLN
TAF
KSLN 241734Z 2418/2518 15016G20KT P6SM SKC
     FM242100 18018G25KT P6SM SKC
     FM250100 17012KT P6SM SCT250
     FM251200 20015KT P6SM BKN250
     FM251500 22018G25KT P6SM BKN250=

USA.gov is the U.S. government's official web portal to all federal, state and local government web resources and services.